Time;durP1;ratioP1;P1;durP2;ratioP2;P2;SDS_P1;SDS_P2;PMS_P1;PMS_P2;Temp;Humidity;BMP_temperature;BMP_pressure;BME280_temperature;BME280_humidity;BME280_pressure;Samples;Min_cycle;Max_cycle;Signal;HPM_P1;HPM_P2
2021/09/01 00:02:07;;;;;;;14.73;12.60;;;11.50;99.90;;;;;;5079366;28;20559;-45
2021/09/01 00:04:33;;;;;;;13.70;12.30;;;11.50;99.90;;;;;;5078839;28;20823;-45
2021/09/01 00:06:58;;;;;;;14.47;13.00;;;11.50;99.90;;;;;;5078497;28;20201;-45
2021/09/01 00:09:25;;;;;;;14.37;12.87;;;11.50;99.90;;;;;;5078511;28;20177;-45
2021/09/01 00:11:51;;;;;;;14.40;12.87;;;11.40;99.90;;;;;;5078710;28;20423;-45
2021/09/01 00:14:17;;;;;;;13.80;12.33;;;11.40;99.90;;;;;;5078489;28;20454;-45
2021/09/01 00:16:43;;;;;;;13.63;12.23;;;11.30;99.90;;;;;;5078528;28;20470;-45
2021/09/01 00:19:09;;;;;;;14.63;12.63;;;11.30;99.90;;;;;;5079221;28;20177;-45
2021/09/01 00:21:36;;;;;;;14.33;12.93;;;11.30;99.90;;;;;;5079380;28;20668;-45
2021/09/01 00:24:03;;;;;;;16.27;12.43;;;11.30;99.90;;;;;;5078704;28;20423;-45
2021/09/01 00:26:29;;;;;;;14.20;12.80;;;11.30;99.90;;;;;;5078605;28;20817;-45
2021/09/01 00:28:56;;;;;;;15.20;13.60;;;11.20;99.90;;;;;;5079069;28;20437;-45
2021/09/01 00:31:22;;;;;;;16.17;13.53;;;11.20;99.90;;;;;;5079161;28;20466;-45
2021/09/01 00:33:48;;;;;;;15.13;13.37;;;11.20;99.90;;;;;;5079085;28;20592;-45
2021/09/01 00:36:14;;;;;;;15.63;14.03;;;11.20;99.90;;;;;;5078892;28;20223;-45
2021/09/01 00:38:41;;;;;;;13.83;12.53;;;11.20;99.90;;;;;;5079175;28;20659;-45
2021/09/01 00:41:08;;;;;;;14.23;12.93;;;11.20;99.90;;;;;;5079083;28;20451;-45
2021/09/01 00:43:34;;;;;;;13.97;12.47;;;11.10;99.90;;;;;;5077477;28;20427;-45
2021/09/01 00:46:00;;;;;;;13.27;11.97;;;11.10;99.90;;;;;;5078793;28;20859;-45
2021/09/01 00:48:26;;;;;;;14.30;12.20;;;11.10;99.90;;;;;;5078499;28;20211;-45
2021/09/01 00:50:53;;;;;;;13.53;11.93;;;11.00;99.90;;;;;;5078891;28;20178;-45
2021/09/01 00:53:26;;;;;;;13.30;11.95;;;11.00;99.90;;;;;;5078696;28;20420;-46
2021/09/01 00:55:52;;;;;;;12.60;11.30;;;11.00;99.90;;;;;;5077373;28;20173;-45
2021/09/01 00:58:19;;;;;;;13.47;11.40;;;11.00;99.90;;;;;;5078701;28;20532;-45
2021/09/01 01:01:15;;;;;;;12.83;11.47;;;11.00;99.90;;;;;;5078440;28;20427;-45
2021/09/01 01:03:51;;;;;;;15.77;13.87;;;10.90;99.90;;;;;;5077956;28;20427;-45
2021/09/01 01:06:22;;;;;;;13.47;12.17;;;10.90;99.90;;;;;;5076994;28;20832;-46
2021/09/01 01:08:49;;;;;;;14.73;13.23;;;10.90;99.90;;;;;;5076973;28;20813;-45
2021/09/01 01:11:15;;;;;;;14.20;12.70;;;10.90;99.90;;;;;;5076911;28;20526;-45
2021/09/01 01:13:48;;;;;;;15.38;13.77;;;10.90;99.90;;;;;;5077159;28;20450;-46
2021/09/01 01:16:15;;;;;;;17.90;15.50;;;10.90;99.90;;;;;;5075916;28;20463;-45
2021/09/01 01:18:43;;;;;;;15.10;12.73;;;10.90;99.90;;;;;;5075558;28;20459;-46
2021/09/01 01:21:08;;;;;;;14.30;12.80;;;10.90;99.90;;;;;;5077400;28;20544;-46
2021/09/01 01:23:34;;;;;;;16.83;12.77;;;10.80;99.90;;;;;;5076849;28;20585;-45
2021/09/01 01:26:00;;;;;;;13.87;12.47;;;10.80;99.90;;;;;;5077443;28;20181;-45
2021/09/01 01:28:25;;;;;;;16.37;14.63;;;10.80;99.90;;;;;;5076056;28;20524;-46
2021/09/01 01:30:51;;;;;;;15.57;13.93;;;10.80;99.90;;;;;;5076277;28;20486;-46
2021/09/01 01:33:17;;;;;;;15.67;13.97;;;10.80;99.90;;;;;;5076964;28;20204;-46
2021/09/01 01:35:44;;;;;;;15.93;13.17;;;10.70;99.90;;;;;;5076639;28;20407;-45
2021/09/01 01:38:21;;;;;;;16.27;14.00;;;10.70;99.90;;;;;;5076268;28;20266;-45
2021/09/01 01:40:48;;;;;;;16.77;14.73;;;10.70;99.90;;;;;;5077204;28;20430;-45
2021/09/01 01:46:35;;;;;;;15.97;13.87;;;10.60;99.90;;;;;;5086987;28;20881;-45
2021/09/01 01:49:01;;;;;;;14.40;13.00;;;10.60;99.90;;;;;;5076660;28;20427;-45
2021/09/01 01:51:27;;;;;;;15.50;13.90;;;10.60;99.90;;;;;;5076528;28;20199;-45
2021/09/01 01:53:52;;;;;;;14.37;12.90;;;10.60;99.90;;;;;;5076298;28;20173;-45
2021/09/01 01:56:18;;;;;;;14.90;13.40;;;10.60;99.90;;;;;;5076584;28;20303;-46
2021/09/01 01:58:44;;;;;;;14.80;12.70;;;10.60;99.90;;;;;;5076297;28;20249;-46
2021/09/01 02:01:09;;;;;;;14.57;13.07;;;10.50;99.90;;;;;;5076353;28;20271;-46
2021/09/01 02:03:35;;;;;;;17.00;13.67;;;10.50;99.90;;;;;;5076521;28;20173;-45
2021/09/01 02:06:00;;;;;;;15.37;13.73;;;10.50;99.90;;;;;;5076379;28;20522;-45
2021/09/01 02:08:26;;;;;;;16.23;14.03;;;10.50;99.90;;;;;;5076256;28;20188;-45
2021/09/01 02:10:52;;;;;;;14.70;13.20;;;10.50;99.90;;;;;;5076749;28;20181;-45
2021/09/01 02:13:18;;;;;;;15.40;13.80;;;10.50;99.90;;;;;;5076438;28;20488;-45
2021/09/01 02:15:43;;;;;;;14.23;12.73;;;10.50;99.90;;;;;;5085713;28;20193;-45
2021/09/01 02:18:09;;;;;;;17.00;12.87;;;10.50;99.90;;;;;;5096257;28;20215;-46
2021/09/01 02:20:35;;;;;;;14.53;12.97;;;10.50;99.90;;;;;;5096398;28;20282;-45
2021/09/01 02:23:00;;;;;;;15.67;13.97;;;10.50;99.90;;;;;;5095087;28;20422;-45
2021/09/01 02:25:27;;;;;;;18.03;13.23;;;10.50;99.90;;;;;;5095076;28;20283;-45
2021/09/01 02:27:53;;;;;;;16.13;14.43;;;10.50;99.90;;;;;;5094778;28;20529;-46
2021/09/01 02:30:21;;;;;;;15.40;12.73;;;10.50;99.90;;;;;;5095199;28;20470;-45
2021/09/01 02:32:47;;;;;;;14.17;12.77;;;10.50;99.90;;;;;;5095179;28;20672;-45
2021/09/01 02:35:13;;;;;;;15.53;14.00;;;10.50;99.90;;;;;;5094739;28;20418;-45
2021/09/01 02:37:38;;;;;;;16.03;14.33;;;10.50;99.90;;;;;;5095640;28;20219;-45
2021/09/01 02:40:05;;;;;;;17.75;14.40;;;10.50;99.90;;;;;;5096317;28;20426;-45
2021/09/01 02:42:30;;;;;;;15.17;13.37;;;10.50;99.90;;;;;;5096305;28;20165;-46
2021/09/01 02:44:57;;;;;;;16.57;14.83;;;10.50;99.90;;;;;;5096455;28;20426;-45
2021/09/01 02:47:23;;;;;;;16.67;14.87;;;10.50;99.90;;;;;;5096526;28;20259;-45
2021/09/01 02:49:49;;;;;;;15.20;13.60;;;10.50;99.90;;;;;;5100194;28;20442;-45
2021/09/01 02:52:14;;;;;;;18.20;14.73;;;10.40;99.90;;;;;;5100187;28;20414;-45
2021/09/01 02:54:40;;;;;;;16.07;14.33;;;10.40;99.90;;;;;;5100131;28;20173;-45
2021/09/01 02:57:06;;;;;;;14.97;13.47;;;10.40;99.90;;;;;;5099878;28;20219;-45
2021/09/01 02:59:32;;;;;;;16.70;14.90;;;10.40;99.90;;;;;;5100239;28;20577;-45
2021/09/01 03:01:57;;;;;;;15.10;13.27;;;10.30;99.90;;;;;;5100072;28;20425;-45
2021/09/01 03:04:23;;;;;;;15.00;13.50;;;10.30;99.90;;;;;;5100151;28;20588;-45
2021/09/01 03:06:49;;;;;;;16.47;14.67;;;10.30;99.90;;;;;;5099978;28;20446;-45
2021/09/01 03:09:15;;;;;;;16.93;15.13;;;10.30;99.90;;;;;;5100128;28;20210;-45
2021/09/01 03:11:40;;;;;;;16.07;14.33;;;10.30;99.90;;;;;;5100070;28;20418;-45
2021/09/01 03:14:06;;;;;;;16.63;14.67;;;10.30;99.90;;;;;;5099684;28;20429;-45
2021/09/01 03:16:32;;;;;;;14.53;12.77;;;10.20;99.90;;;;;;5099941;28;20214;-45
2021/09/01 03:18:57;;;;;;;14.83;13.33;;;10.20;99.90;;;;;;5099751;28;20872;-45
2021/09/01 03:21:23;;;;;;;15.10;13.50;;;10.20;99.90;;;;;;5099561;28;20494;-45
2021/09/01 03:23:49;;;;;;;13.57;12.20;;;10.10;99.90;;;;;;5099642;28;20425;-45
2021/09/01 03:26:15;;;;;;;15.47;13.87;;;10.10;99.90;;;;;;5100003;28;20191;-45
2021/09/01 03:28:40;;;;;;;16.13;14.43;;;10.10;99.90;;;;;;5099517;28;20169;-43
2021/09/01 03:31:06;;;;;;;15.83;13.40;;;10.10;99.90;;;;;;5099526;28;20710;-45
2021/09/01 03:33:31;;;;;;;15.73;13.03;;;10.10;99.90;;;;;;5098997;28;20441;-45
2021/09/01 03:35:57;;;;;;;14.15;12.65;;;10.10;99.90;;;;;;5099560;28;20550;-46
2021/09/01 03:38:23;;;;;;;15.90;13.70;;;10.10;99.90;;;;;;5099097;28;20277;-45
2021/09/01 03:40:49;;;;;;;22.57;17.40;;;10.10;99.90;;;;;;5099461;28;20836;-45
2021/09/01 03:43:14;;;;;;;21.97;15.17;;;10.10;99.90;;;;;;5099113;28;20238;-45
2021/09/01 03:45:40;;;;;;;28.63;18.10;;;10.10;99.90;;;;;;5098808;28;20832;-45
2021/09/01 03:48:06;;;;;;;24.30;17.87;;;10.10;99.90;;;;;;5098842;28;20182;-46
2021/09/01 03:50:31;;;;;;;26.10;17.40;;;10.10;99.90;;;;;;5099220;28;20415;-46
2021/09/01 03:52:58;;;;;;;30.13;20.93;;;10.10;99.90;;;;;;5098642;28;20177;-45
2021/09/01 03:55:24;;;;;;;29.03;19.33;;;10.10;99.90;;;;;;5098798;28;20177;-45
2021/09/01 03:57:50;;;;;;;22.30;17.23;;;10.10;99.90;;;;;;5098843;28;20473;-45
2021/09/01 04:00:16;;;;;;;21.63;17.40;;;10.10;99.90;;;;;;5098323;28;20411;-45
2021/09/01 04:02:42;;;;;;;24.58;18.30;;;10.10;99.90;;;;;;5097483;28;20190;-47
2021/09/01 04:05:08;;;;;;;20.23;16.20;;;10.10;99.90;;;;;;5097486;28;20177;-47
2021/09/01 04:07:34;;;;;;;20.30;17.47;;;10.10;99.90;;;;;;5098787;28;20410;-47
2021/09/01 04:09:59;;;;;;;18.20;16.23;;;10.10;99.90;;;;;;5097823;28;20411;-47
2021/09/01 04:12:25;;;;;;;19.67;16.50;;;10.10;99.90;;;;;;5098284;28;20693;-46
2021/09/01 04:14:51;;;;;;;18.50;16.13;;;10.10;99.90;;;;;;5098235;28;20414;-47
2021/09/01 04:17:16;;;;;;;21.43;16.67;;;10.00;99.90;;;;;;5098287;28;20265;-47
2021/09/01 04:19:42;;;;;;;18.63;16.23;;;10.00;99.90;;;;;;5098064;28;20418;-47
2021/09/01 04:22:08;;;;;;;18.33;16.07;;;10.00;99.90;;;;;;5098372;28;20307;-47
2021/09/01 04:24:34;;;;;;;19.27;16.17;;;9.90;99.90;;;;;;5097480;28;20894;-46
2021/09/01 04:26:59;;;;;;;23.93;18.67;;;9.90;99.90;;;;;;5098201;28;20191;-46
2021/09/01 04:29:25;;;;;;;22.35;18.75;;;9.90;99.90;;;;;;5097950;28;20755;-46
2021/09/01 04:31:51;;;;;;;24.57;18.17;;;9.90;99.90;;;;;;5098269;28;20197;-46
2021/09/01 04:34:17;;;;;;;26.40;19.80;;;9.90;99.90;;;;;;5098120;28;20207;-46
2021/09/01 04:36:42;;;;;;;23.15;18.40;;;9.90;99.90;;;;;;5097687;28;20200;-46
2021/09/01 04:39:08;;;;;;;21.93;18.33;;;9.90;99.90;;;;;;5096235;28;20271;-46
2021/09/01 04:41:34;;;;;;;20.40;16.80;;;9.90;99.90;;;;;;5096871;28;20177;-46
2021/09/01 04:44:00;;;;;;;26.03;17.60;;;9.90;99.90;;;;;;5096277;28;20206;-46
2021/09/01 04:46:26;;;;;;;21.17;16.87;;;9.90;99.90;;;;;;5096232;28;20729;-46
2021/09/01 04:48:51;;;;;;;18.37;15.73;;;9.80;99.90;;;;;;5095867;28;20529;-46
2021/09/01 04:51:18;;;;;;;21.00;17.00;;;9.80;99.90;;;;;;5096375;28;20176;-46
2021/09/01 04:53:44;;;;;;;18.70;16.17;;;9.80;99.90;;;;;;5095264;28;20272;-46
2021/09/01 04:56:10;;;;;;;20.83;16.57;;;9.80;99.90;;;;;;5096134;28;20434;-47
2021/09/01 04:58:36;;;;;;;18.90;16.50;;;9.80;99.90;;;;;;5095128;28;20438;-46
2021/09/01 05:01:01;;;;;;;22.50;18.70;;;9.80;99.90;;;;;;5095351;28;20172;-46
2021/09/01 05:03:27;;;;;;;20.60;17.53;;;9.80;99.90;;;;;;5095141;28;20200;-46
2021/09/01 05:05:53;;;;;;;23.50;18.87;;;9.90;99.90;;;;;;5095097;28;20173;-46
2021/09/01 05:08:19;;;;;;;22.87;17.80;;;9.90;99.90;;;;;;5096189;28;20513;-46
2021/09/01 05:10:44;;;;;;;21.20;15.57;;;9.90;99.90;;;;;;5096461;28;20276;-46
2021/09/01 05:13:10;;;;;;;20.03;17.10;;;9.90;99.90;;;;;;5096436;28;20534;-46
2021/09/01 05:15:36;;;;;;;15.40;12.93;;;9.90;99.90;;;;;;5095774;28;20200;-46
2021/09/01 05:18:01;;;;;;;18.10;15.10;;;10.20;99.90;;;;;;5095387;28;20516;-45
2021/09/01 05:20:27;;;;;;;19.40;13.77;;;10.40;99.90;;;;;;5096094;28;20173;-45
2021/09/01 05:22:59;;;;;;;19.07;15.10;;;10.70;99.90;;;;;;5096398;28;20172;-45
2021/09/01 05:25:29;;;;;;;18.53;14.27;;;11.00;99.90;;;;;;5096696;28;20184;-45
2021/09/01 05:27:57;;;;;;;15.70;13.93;;;11.20;99.90;;;;;;5096531;28;20454;-45
2021/09/01 05:30:22;;;;;;;15.73;14.03;;;11.50;99.90;;;;;;5096681;28;20481;-45
2021/09/01 05:32:51;;;;;;;17.77;13.23;;;11.60;99.90;;;;;;5096969;28;20426;-46
2021/09/01 05:35:17;;;;;;;16.13;13.53;;;11.80;99.90;;;;;;5096712;28;20273;-46
2021/09/01 05:37:43;;;;;;;16.00;12.73;;;11.90;99.90;;;;;;5095766;28;21052;-45
2021/09/01 05:40:10;;;;;;;13.77;12.37;;;12.10;99.90;;;;;;5096729;28;20443;-46
2021/09/01 05:42:36;;;;;;;15.63;12.77;;;12.30;99.90;;;;;;5095834;28;20453;-45
2021/09/01 05:45:04;;;;;;;13.77;12.07;;;12.40;99.90;;;;;;5094750;28;20454;-45
2021/09/01 05:47:29;;;;;;;14.38;12.85;;;12.50;99.90;;;;;;5095671;28;20222;-45
2021/09/01 05:49:56;;;;;;;13.90;12.40;;;12.70;99.90;;;;;;5096009;28;20985;-45
2021/09/01 05:52:23;;;;;;;19.53;12.77;;;12.80;99.90;;;;;;5095939;28;20267;-44
2021/09/01 05:54:51;;;;;;;19.37;11.80;;;12.90;99.90;;;;;;5095712;28;20422;-45
2021/09/01 05:57:26;;;;;;;13.23;11.80;;;13.10;99.90;;;;;;5095552;28;20879;-45
2021/09/01 06:00:01;;;;;;;15.40;11.70;;;13.20;99.90;;;;;;5095095;28;20410;-45
2021/09/01 06:02:41;;;;;;;15.70;11.93;;;13.40;99.90;;;;;;5095928;28;20409;-45
2021/09/01 06:05:09;;;;;;;15.53;13.20;;;13.50;99.90;;;;;;5095921;28;20815;-45
2021/09/01 06:07:50;;;;;;;14.17;12.13;;;13.60;99.90;;;;;;5096545;28;20406;-45
2021/09/01 06:10:18;;;;;;;15.03;13.40;;;13.80;99.90;;;;;;5096156;28;20847;-47
2021/09/01 06:12:47;;;;;;;13.50;11.87;;;13.90;99.90;;;;;;5095482;28;20422;-47
2021/09/01 06:15:12;;;;;;;14.50;12.40;;;14.00;99.90;;;;;;5095248;28;20442;-46
2021/09/01 06:17:38;;;;;;;12.37;11.13;;;14.10;99.90;;;;;;5095315;28;21507;-47
2021/09/01 06:20:08;;;;;;;11.90;10.80;;;14.30;99.90;;;;;;5094699;28;20441;-47
2021/09/01 06:22:33;;;;;;;13.27;11.97;;;14.40;99.90;;;;;;5096052;28;20241;-47
2021/09/01 06:25:01;;;;;;;11.20;10.07;;;14.50;99.90;;;;;;5098592;28;20414;-48
2021/09/01 06:27:27;;;;;;;12.70;10.50;;;14.70;99.90;;;;;;5100047;28;20168;-47
2021/09/01 06:29:52;;;;;;;11.27;10.10;;;14.80;99.90;;;;;;5099022;28;20545;-47
2021/09/01 06:32:18;;;;;;;10.23;9.10;;;15.00;99.90;;;;;;5099347;28;20421;-47
2021/09/01 06:34:44;;;;;;;10.80;9.70;;;15.20;99.90;;;;;;5098258;28;20438;-48
2021/09/01 06:37:09;;;;;;;10.60;9.60;;;15.40;99.90;;;;;;5098226;28;20458;-47
2021/09/01 06:39:35;;;;;;;11.37;10.27;;;15.60;99.70;;;;;;5098843;28;20582;-47
2021/09/01 06:42:01;;;;;;;12.20;11.00;;;15.80;99.20;;;;;;5098474;28;20571;-48
2021/09/01 06:44:27;;;;;;;12.80;11.60;;;15.90;99.00;;;;;;5097904;28;20626;-45
2021/09/01 06:46:52;;;;;;;14.83;12.30;;;16.00;98.60;;;;;;5099000;28;20430;-45
2021/09/01 06:49:18;;;;;;;13.70;11.17;;;16.20;98.50;;;;;;5099815;28;20433;-46
2021/09/01 06:51:44;;;;;;;12.63;11.43;;;16.40;98.40;;;;;;5100652;28;20169;-48
2021/09/01 06:54:10;;;;;;;15.70;12.70;;;16.50;98.10;;;;;;5098044;28;20520;-47
2021/09/01 06:56:35;;;;;;;14.00;12.60;;;16.70;97.70;;;;;;5098400;28;20197;-47
2021/09/01 06:59:01;;;;;;;14.70;13.10;;;16.80;97.50;;;;;;5098183;28;20879;-47
2021/09/01 07:01:26;;;;;;;13.50;12.27;;;16.90;97.40;;;;;;5098055;28;20181;-47
2021/09/01 07:03:54;;;;;;;14.27;12.87;;;17.00;97.40;;;;;;5098372;28;20168;-45
2021/09/01 07:06:21;;;;;;;15.07;13.20;;;17.10;97.30;;;;;;5097711;28;20180;-47
2021/09/01 07:08:47;;;;;;;14.50;13.07;;;17.20;97.00;;;;;;5098891;28;20658;-47
2021/09/01 07:11:12;;;;;;;13.97;12.57;;;17.30;97.30;;;;;;5099100;28;20414;-45
2021/09/01 07:13:38;;;;;;;14.63;12.80;;;17.50;97.40;;;;;;5098114;28;20758;-45
2021/09/01 07:16:06;;;;;;;10.63;9.63;;;17.50;97.40;;;;;;5098632;28;20192;-45
2021/09/01 07:18:31;;;;;;;10.10;9.20;;;17.70;97.50;;;;;;5097681;28;20491;-45
2021/09/01 07:20:57;;;;;;;12.37;10.90;;;18.00;97.30;;;;;;5097211;28;20422;-45
2021/09/01 07:23:23;;;;;;;11.60;10.43;;;18.30;97.00;;;;;;5097991;28;20196;-48
2021/09/01 07:25:48;;;;;;;14.35;12.07;;;18.70;96.80;;;;;;5097712;28;20527;-47
2021/09/01 07:28:14;;;;;;;9.83;8.90;;;19.00;96.80;;;;;;5097795;28;20359;-45
2021/09/01 07:30:40;;;;;;;12.80;11.50;;;19.30;96.70;;;;;;5097736;28;20232;-46
2021/09/01 07:33:06;;;;;;;12.67;11.40;;;19.60;96.20;;;;;;5098337;28;20279;-46
2021/09/01 07:35:31;;;;;;;19.80;13.70;;;19.90;95.90;;;;;;5098840;28;20461;-46
2021/09/01 07:37:57;;;;;;;31.37;13.77;;;20.20;95.50;;;;;;5098591;28;20211;-48
2021/09/01 07:40:24;;;;;;;21.63;12.37;;;20.40;95.00;;;;;;5097188;28;20173;-46
2021/09/01 07:42:50;;;;;;;13.27;11.87;;;20.80;95.00;;;;;;5097102;28;20168;-47
2021/09/01 07:45:17;;;;;;;15.77;10.50;;;21.00;93.50;;;;;;5097173;28;20811;-47
2021/09/01 07:47:53;;;;;;;11.47;10.33;;;21.10;93.60;;;;;;5097044;28;20428;-48
2021/09/01 07:50:22;;;;;;;14.20;10.90;;;21.30;93.80;;;;;;5097367;28;20437;-47
2021/09/01 07:52:47;;;;;;;25.67;12.73;;;21.60;93.80;;;;;;5096924;28;20422;-47
2021/09/01 07:55:13;;;;;;;13.30;11.10;;;22.00;93.30;;;;;;5097504;28;20425;-47
2021/09/01 07:57:39;;;;;;;13.30;11.50;;;22.50;93.50;;;;;;5097622;28;20590;-46
2021/09/01 08:00:10;;;;;;;11.30;10.20;;;23.20;92.80;;;;;;5097246;28;20480;-47
2021/09/01 08:02:36;;;;;;;11.33;10.23;;;23.90;90.70;;;;;;5096820;28;20180;-45
2021/09/01 08:05:03;;;;;;;13.30;10.07;;;24.30;89.30;;;;;;5097172;28;20410;-47
2021/09/01 08:07:28;;;;;;;11.03;10.03;;;25.00;90.00;;;;;;5095924;28;20410;-46
2021/09/01 08:09:55;;;;;;;17.50;10.97;;;25.40;84.00;;;;;;5092984;28;20419;-48
2021/09/01 08:12:21;;;;;;;20.37;11.53;;;25.60;83.90;;;;;;5092635;28;20836;-48
2021/09/01 08:14:47;;;;;;;9.90;8.90;;;26.20;84.70;;;;;;5094618;28;20676;-47
2021/09/01 08:17:13;;;;;;;25.03;12.27;;;26.90;80.70;;;;;;5096365;28;20457;-47
2021/09/01 08:19:41;;;;;;;10.23;9.17;;;27.40;76.40;;;;;;5097047;28;20257;-48
2021/09/01 08:22:06;;;;;;;12.00;9.00;;;27.80;75.10;;;;;;5096637;28;20422;-47
2021/09/01 08:24:32;;;;;;;9.10;8.10;;;28.40;72.10;;;;;;5098269;28;20419;-47
2021/09/01 08:26:58;;;;;;;11.20;9.40;;;28.70;66.50;;;;;;5098002;28;20195;-47
2021/09/01 08:29:24;;;;;;;25.73;10.63;;;28.90;64.00;;;;;;5096300;28;20414;-45
2021/09/01 08:31:49;;;;;;;17.33;9.60;;;29.00;65.30;;;;;;5096666;28;20192;-45
2021/09/01 08:34:15;;;;;;;10.57;9.47;;;29.30;62.90;;;;;;5095587;28;20236;-47
2021/09/01 08:36:41;;;;;;;9.97;8.40;;;29.60;64.70;;;;;;5095335;28;20296;-46
2021/09/01 08:39:07;;;;;;;10.37;9.23;;;30.10;61.70;;;;;;5096017;28;20841;-45
2021/09/01 08:41:32;;;;;;;10.00;9.10;;;30.50;59.20;;;;;;5095410;28;20168;-48
2021/09/01 08:44:00;;;;;;;12.13;7.97;;;30.70;58.30;;;;;;5093826;28;20288;-45
2021/09/01 08:46:26;;;;;;;8.43;7.30;;;31.10;57.30;;;;;;5093667;28;20415;-47
2021/09/01 08:48:52;;;;;;;8.50;7.60;;;31.30;54.80;;;;;;5093228;28;20418;-47
2021/09/01 08:51:18;;;;;;;8.40;7.40;;;31.40;55.50;;;;;;5093151;28;20276;-46
2021/09/01 08:53:44;;;;;;;8.80;8.00;;;31.50;55.00;;;;;;5093545;28;20425;-46
2021/09/01 08:56:10;;;;;;;7.97;7.30;;;31.70;51.90;;;;;;5093717;28;20416;-47
2021/09/01 08:58:36;;;;;;;8.67;6.67;;;31.30;53.60;;;;;;5075805;28;20729;-47
2021/09/01 09:01:02;;;;;;;7.90;5.97;;;31.10;52.20;;;;;;5074600;28;20169;-45
2021/09/01 09:03:30;;;;;;;8.93;8.00;;;30.90;53.60;;;;;;5074840;28;20419;-45
2021/09/01 09:06:05;;;;;;;7.43;6.83;;;31.10;52.70;;;;;;5075684;28;20434;-47
2021/09/01 09:08:32;;;;;;;7.27;6.57;;;31.20;52.20;;;;;;5075511;28;20496;-45
2021/09/01 09:10:58;;;;;;;6.63;6.03;;;31.20;51.10;;;;;;5073944;28;20812;-47
2021/09/01 09:13:29;;;;;;;7.80;7.10;;;31.20;52.00;;;;;;5073660;28;20518;-47
2021/09/01 09:16:09;;;;;;;7.30;6.60;;;31.10;50.00;;;;;;5073630;28;20250;-45
2021/09/01 09:18:35;;;;;;;7.77;7.07;;;31.00;49.80;;;;;;5074333;28;20514;-47
2021/09/01 09:21:18;;;;;;;7.73;7.03;;;30.30;49.80;;;;;;5074909;28;20411;-46
2021/09/01 09:23:46;;;;;;;9.17;7.23;;;28.90;50.50;;;;;;5074584;28;20431;-46
2021/09/01 09:26:41;;;;;;;7.87;7.10;;;28.40;52.00;;;;;;5075641;28;20411;-46
2021/09/01 09:29:12;;;;;;;7.47;6.77;;;27.80;53.20;;;;;;5074455;28;20438;-46
2021/09/01 09:31:40;;;;;;;7.83;6.77;;;27.20;53.80;;;;;;5075550;28;20540;-45
2021/09/01 09:34:10;;;;;;;6.93;6.23;;;27.00;55.20;;;;;;5074597;28;20419;-48
2021/09/01 09:36:37;;;;;;;7.97;7.30;;;27.40;55.60;;;;;;5076083;28;20886;-47
2021/09/01 09:39:03;;;;;;;6.00;5.40;;;28.10;54.00;;;;;;5076295;28;20414;-47
2021/09/01 09:41:29;;;;;;;6.37;5.83;;;28.10;52.30;;;;;;5076955;28;20424;-47
2021/09/01 09:43:58;;;;;;;7.60;6.90;;;28.30;54.30;;;;;;5076084;28;20419;-45
2021/09/01 09:46:24;;;;;;;6.30;5.67;;;28.90;54.40;;;;;;5074644;28;20411;-43
2021/09/01 09:48:50;;;;;;;6.07;5.57;;;29.70;51.40;;;;;;5074149;28;20488;-38
2021/09/01 09:51:41;;;;;;;7.33;6.73;;;29.80;52.20;;;;;;5075227;28;20409;-36
2021/09/01 09:54:27;;;;;;;6.77;6.13;;;29.10;49.40;;;;;;5072507;28;20430;-36
2021/09/01 09:57:08;;;;;;;6.50;5.90;;;27.60;50.50;;;;;;5072106;28;20524;-38
2021/09/01 09:59:34;;;;;;;6.10;5.60;;;26.90;52.60;;;;;;5074687;28;20419;-38
2021/09/01 10:02:01;;;;;;;10.03;6.27;;;26.70;53.90;;;;;;5074558;28;20725;-38
2021/09/01 10:04:28;;;;;;;5.70;5.30;;;26.80;51.50;;;;;;5075246;28;20422;-37
2021/09/01 10:06:54;;;;;;;6.27;5.77;;;27.10;52.90;;;;;;5075204;28;20423;-37
2021/09/01 10:09:20;;;;;;;9.13;6.10;;;26.90;51.10;;;;;;5073053;28;20409;-38
2021/09/01 10:11:48;;;;;;;6.53;5.50;;;26.70;53.60;;;;;;5072805;28;20812;-38
2021/09/01 10:14:17;;;;;;;6.97;6.30;;;26.50;50.40;;;;;;5072942;28;20174;-38
2021/09/01 10:16:51;;;;;;;6.30;5.70;;;26.10;51.20;;;;;;5071901;28;20467;-36
2021/09/01 10:19:19;;;;;;;6.47;5.40;;;26.10;52.60;;;;;;5073311;28;20579;-38
2021/09/01 10:22:06;;;;;;;5.70;5.20;;;26.40;51.70;;;;;;5074631;28;20407;-38
2021/09/01 10:24:42;;;;;;;9.80;5.87;;;26.80;53.20;;;;;;5076127;28;20698;-39
2021/09/01 10:27:09;;;;;;;6.30;5.80;;;26.80;50.50;;;;;;5074699;28;20865;-38
2021/09/01 10:29:50;;;;;;;6.83;6.13;;;26.80;49.60;;;;;;5072435;28;20510;-37
2021/09/01 10:32:28;;;;;;;6.03;5.53;;;26.60;49.00;;;;;;5073342;28;20871;-39
2021/09/01 10:35:17;;;;;;;6.57;5.97;;;26.60;50.20;;;;;;5072791;28;20394;-39
2021/09/01 10:37:56;;;;;;;6.63;6.03;;;26.30;50.80;;;;;;5085427;28;20485;-38
2021/09/01 10:40:21;;;;;;;6.90;6.20;;;26.20;51.10;;;;;;5093471;28;20415;-38
2021/09/01 10:42:51;;;;;;;6.57;5.97;;;26.00;51.40;;;;;;5094898;28;20505;-38
2021/09/01 10:45:19;;;;;;;7.67;6.90;;;25.80;51.60;;;;;;5095029;28;20175;-36
2021/09/01 10:47:51;;;;;;;6.43;5.93;;;25.60;52.10;;;;;;5094649;28;20753;-38
2021/09/01 10:50:23;;;;;;;6.80;6.20;;;25.80;51.60;;;;;;5094872;28;20432;-36
2021/09/01 10:53:21;;;;;;;6.87;6.27;;;25.60;50.70;;;;;;5095150;28;20414;-39
2021/09/01 10:56:05;;;;;;;6.77;6.17;;;25.10;52.00;;;;;;5095669;28;20820;-36
2021/09/01 10:58:57;;;;;;;7.00;6.40;;;25.10;52.80;;;;;;5094243;28;20466;-41
2021/09/01 11:01:23;;;;;;;5.90;5.33;;;25.40;55.00;;;;;;5092310;28;20458;-37
2021/09/01 11:03:52;;;;;;;6.73;6.10;;;26.40;56.30;;;;;;5094650;28;20879;-37
2021/09/01 11:06:32;;;;;;;6.07;5.57;;;27.50;53.20;;;;;;5094924;28;20422;-38
2021/09/01 11:09:05;;;;;;;6.80;6.20;;;28.00;50.80;;;;;;5094700;28;20513;-38
2021/09/01 11:11:50;;;;;;;6.57;5.97;;;27.80;50.70;;;;;;5097942;28;20457;-41
2021/09/01 11:14:38;;;;;;;6.70;6.13;;;27.90;52.30;;;;;;5098932;28;20430;-36
2021/09/01 11:17:15;;;;;;;6.90;6.30;;;27.90;50.10;;;;;;5098454;28;20474;-37
2021/09/01 11:19:43;;;;;;;5.53;5.03;;;27.40;51.80;;;;;;5098808;28;20551;-39
2021/09/01 11:22:12;;;;;;;7.17;6.00;;;27.00;51.90;;;;;;5098048;28;20548;-41
2021/09/01 11:24:54;;;;;;;6.50;5.90;;;26.70;52.30;;;;;;5097158;28;20812;-41
2021/09/01 11:27:22;;;;;;;7.83;5.80;;;26.50;52.80;;;;;;5096751;28;20565;-39
2021/09/01 11:29:50;;;;;;;5.93;5.43;;;27.00;53.10;;;;;;5097972;28;20711;-38
2021/09/01 11:32:17;;;;;;;7.20;6.50;;;27.90;52.10;;;;;;5097659;28;20411;-38
2021/09/01 11:34:44;;;;;;;6.30;5.70;;;28.60;49.40;;;;;;5095973;28;20521;-40
2021/09/01 11:37:10;;;;;;;6.70;6.10;;;28.60;48.10;;;;;;5096285;28;21057;-38
2021/09/01 11:39:47;;;;;;;6.97;6.43;;;27.90;49.30;;;;;;5096181;28;20491;-37
2021/09/01 11:42:13;;;;;;;6.72;6.13;;;27.20;49.40;;;;;;5097262;28;20358;-39
2021/09/01 11:44:40;;;;;;;6.27;5.70;;;26.80;51.80;;;;;;5096804;28;20269;-38
2021/09/01 11:47:16;;;;;;;6.57;5.97;;;27.30;53.30;;;;;;5097502;28;20544;-38
2021/09/01 11:49:42;;;;;;;6.97;6.30;;;28.30;51.60;;;;;;5095613;28;20519;-40
2021/09/01 11:52:08;;;;;;;6.93;5.80;;;28.80;49.50;;;;;;5096481;28;20188;-39
2021/09/01 11:54:39;;;;;;;6.10;5.50;;;29.20;50.30;;;;;;5097839;28;20438;-40
2021/09/01 11:57:05;;;;;;;6.50;5.90;;;29.80;50.20;;;;;;5098682;28;20295;-38
2021/09/01 11:59:31;;;;;;;6.13;5.63;;;30.20;49.60;;;;;;5097670;28;20423;-38
2021/09/01 12:01:58;;;;;;;6.30;5.70;;;30.00;48.30;;;;;;5098034;28;20250;-39
2021/09/01 12:04:26;;;;;;;7.03;6.43;;;29.60;48.50;;;;;;5096617;28;20177;-40
2021/09/01 12:06:51;;;;;;;7.50;6.80;;;29.80;49.00;;;;;;5098060;28;20430;-37
2021/09/01 12:09:17;;;;;;;6.83;6.23;;;29.80;48.30;;;;;;5098597;28;20405;-39
2021/09/01 12:11:58;;;;;;;8.10;6.47;;;29.50;50.30;;;;;;5097282;28;20200;-38
2021/09/01 12:14:27;;;;;;;7.13;6.63;;;29.60;50.00;;;;;;5098387;28;20778;-39
2021/09/01 12:16:55;;;;;;;7.40;6.70;;;29.40;49.80;;;;;;5095738;28;20545;-38
2021/09/01 12:19:21;;;;;;;6.80;6.30;;;29.00;48.90;;;;;;5083372;28;20906;-41
2021/09/01 12:21:52;;;;;;;6.80;6.30;;;29.30;50.20;;;;;;5082262;28;20423;-39
2021/09/01 12:24:23;;;;;;;6.60;6.00;;;30.00;50.00;;;;;;5086333;28;20457;-38
2021/09/01 12:26:53;;;;;;;6.77;6.17;;;30.40;48.50;;;;;;5095087;28;20529;-38
2021/09/01 12:29:51;;;;;;;7.32;6.72;;;30.90;48.80;;;;;;5096389;28;20428;-40
2021/09/01 12:32:18;;;;;;;6.57;5.97;;;30.60;47.40;;;;;;5056056;28;20209;-40
2021/09/01 12:34:47;;;;;;;8.50;7.07;;;30.10;48.00;;;;;;5056195;28;20831;-44
2021/09/01 12:37:33;;;;;;;7.05;6.50;;;29.40;48.20;;;;;;5055062;28;20918;-39
2021/09/01 12:40:04;;;;;;;7.30;6.67;;;28.40;49.50;;;;;;5054018;28;20181;-43
2021/09/01 12:42:34;;;;;;;7.40;6.70;;;28.10;49.90;;;;;;5057040;28;20459;-40